Time;durP1;ratioP1;P1;durP2;ratioP2;P2;SDS_P1;SDS_P2;PMS_P1;PMS_P2;Temp;Humidity;BMP_temperature;BMP_pressure;BME280_temperature;BME280_humidity;BME280_pressure;Samples;Min_cycle;Max_cycle;Signal;HPM_P1;HPM_P2
2022/04/14 00:00:07;;;;;;;10.40;7.80;;;;;;;;;;4971766;28;20644;-85
2022/04/14 00:03:14;;;;;;;10.40;7.17;;;;;;;;;;4989357;28;20226;-86
2022/04/14 00:06:18;;;;;;;10.57;7.93;;;;;;;;;;4959425;28;20190;-85
2022/04/14 00:09:22;;;;;;;12.83;8.97;;;;;;;;;;4986649;28;20214;-86
2022/04/14 00:12:27;;;;;;;9.13;7.80;;;;;;;;;;4982650;28;20190;-85
2022/04/14 00:15:31;;;;;;;13.00;8.03;;;;;;;;;;4978340;28;20195;-85
2022/04/14 00:18:35;;;;;;;11.73;8.47;;;;;;;;;;4997090;28;20186;-85
2022/04/14 00:21:39;;;;;;;10.20;7.97;;;;;;;;;;4986292;28;20212;-85
2022/04/14 00:24:43;;;;;;;9.30;8.03;;;;;;;;;;4974775;28;20226;-86
2022/04/14 00:27:47;;;;;;;11.53;7.80;;;;;;;;;;4966105;28;20219;-85
2022/04/14 00:30:51;;;;;;;11.07;8.43;;;;;;;;;;4977595;28;20634;-85
2022/04/14 00:34:10;;;;;;;9.77;7.77;;;;;;;;;;4987540;28;20681;-85
2022/04/14 00:37:17;;;;;;;10.40;8.17;;;;;;;;;;4985294;28;20198;-86
2022/04/14 00:40:21;;;;;;;11.10;8.20;;;;;;;;;;4985368;28;20186;-85
2022/04/14 00:43:33;;;;;;;11.90;8.60;;;;;;;;;;4966171;28;20218;-85
2022/04/14 00:46:37;;;;;;;14.50;8.87;;;;;;;;;;4970870;28;20190;-85
2022/04/14 00:49:42;;;;;;;12.63;7.93;;;;;;;;;;4996859;28;20178;-85
2022/04/14 00:52:46;;;;;;;11.37;8.30;;;;;;;;;;4996320;28;20194;-85
2022/04/14 00:55:51;;;;;;;9.87;8.53;;;;;;;;;;4985609;28;20190;-85
2022/04/14 00:58:55;;;;;;;12.03;8.47;;;;;;;;;;4974486;28;20626;-86
2022/04/14 01:02:00;;;;;;;11.83;8.67;;;;;;;;;;4976986;28;20241;-86
2022/04/14 01:05:06;;;;;;;15.93;9.57;;;;;;;;;;4966490;28;20183;-85
2022/04/14 01:08:10;;;;;;;11.53;8.83;;;;;;;;;;4986378;28;20218;-85
2022/04/14 01:11:14;;;;;;;11.53;8.37;;;;;;;;;;4973699;28;20194;-85
2022/04/14 01:14:39;;;;;;;10.57;8.10;;;;;;;;;;4985607;28;20226;-86
2022/04/14 01:17:43;;;;;;;12.10;8.30;;;;;;;;;;4995645;28;20190;-85
2022/04/14 01:20:47;;;;;;;11.03;8.80;;;;;;;;;;5008117;28;20182;-86
2022/04/14 01:23:52;;;;;;;10.83;8.60;;;;;;;;;;4985878;28;20557;-86
2022/04/14 01:27:00;;;;;;;9.43;7.27;;;;;;;;;;4976773;28;20190;-85
2022/04/14 01:30:05;;;;;;;11.70;8.10;;;;;;;;;;4966022;28;20191;-86
2022/04/14 01:33:09;;;;;;;9.23;6.90;;;;;;;;;;4965369;28;20222;-85
2022/04/14 01:36:15;;;;;;;9.07;7.40;;;;;;;;;;4962537;28;20653;-86
2022/04/14 01:39:19;;;;;;;9.93;7.70;;;;;;;;;;4973583;28;20178;-85
2022/04/14 01:42:24;;;;;;;11.33;8.30;;;;;;;;;;4986283;28;20545;-85
2022/04/14 01:45:28;;;;;;;12.73;8.70;;;;;;;;;;4975445;28;20191;-86
2022/04/14 01:48:32;;;;;;;10.70;8.43;;;;;;;;;;4985503;28;20209;-86
2022/04/14 01:51:37;;;;;;;12.03;9.00;;;;;;;;;;4985021;28;20190;-85
2022/04/14 01:54:41;;;;;;;13.07;8.87;;;;;;;;;;4984670;28;20217;-85
2022/04/14 01:57:46;;;;;;;12.13;9.53;;;;;;;;;;4977152;28;20182;-85
2022/04/14 02:00:50;;;;;;;12.90;9.27;;;;;;;;;;4973623;28;20186;-85
2022/04/14 02:03:56;;;;;;;14.43;9.93;;;;;;;;;;4984456;28;20222;-85
2022/04/14 02:07:07;;;;;;;13.77;10.60;;;;;;;;;;4970346;28;20194;-86
2022/04/14 02:10:13;;;;;;;14.93;10.73;;;;;;;;;;4984346;28;20197;-85
2022/04/14 02:13:17;;;;;;;14.33;9.47;;;;;;;;;;4995110;28;20225;-85
2022/04/14 02:16:21;;;;;;;11.67;9.77;;;;;;;;;;4985412;28;20542;-85
2022/04/14 02:19:24;;;;;;;12.77;9.60;;;;;;;;;;4996525;28;20523;-85
2022/04/14 02:22:29;;;;;;;13.77;10.57;;;;;;;;;;4970195;28;20182;-86
2022/04/14 02:25:33;;;;;;;10.63;8.40;;;;;;;;;;4984207;28;20201;-86
2022/04/14 02:28:37;;;;;;;10.77;8.77;;;;;;;;;;4973197;28;20665;-85
2022/04/14 02:31:41;;;;;;;11.57;8.97;;;;;;;;;;4964993;28;20187;-86
2022/04/14 02:34:45;;;;;;;13.70;9.83;;;;;;;;;;4976212;28;20214;-85
2022/04/14 02:37:49;;;;;;;11.63;9.13;;;;;;;;;;4968669;28;20194;-85
2022/04/14 02:40:53;;;;;;;10.97;8.70;;;;;;;;;;4965216;28;20198;-85
2022/04/14 02:43:58;;;;;;;10.47;9.37;;;;;;;;;;4972339;28;20244;-85
2022/04/14 02:47:02;;;;;;;11.83;9.57;;;;;;;;;;4972414;28;20190;-86
2022/04/14 02:50:07;;;;;;;15.13;9.50;;;;;;;;;;4984422;28;20205;-85
2022/04/14 02:53:11;;;;;;;11.93;9.53;;;;;;;;;;4983999;28;20221;-85
2022/04/14 02:56:15;;;;;;;11.70;9.07;;;;;;;;;;4973477;28;20538;-85
2022/04/14 02:59:19;;;;;;;14.13;10.03;;;;;;;;;;4984495;28;20182;-86
2022/04/14 03:02:24;;;;;;;13.53;9.50;;;;;;;;;;4953538;28;20660;-85
2022/04/14 03:05:28;;;;;;;14.57;9.10;;;;;;;;;;4954119;28;20182;-85
2022/04/14 03:08:32;;;;;;;11.37;9.47;;;;;;;;;;4964981;28;20214;-85
2022/04/14 03:11:36;;;;;;;11.23;9.07;;;;;;;;;;4971725;28;20194;-85
2022/04/14 03:14:40;;;;;;;13.30;9.20;;;;;;;;;;4984446;28;20217;-85
2022/04/14 03:17:44;;;;;;;13.80;9.67;;;;;;;;;;4972567;28;20198;-85
2022/04/14 03:20:48;;;;;;;13.87;9.50;;;;;;;;;;4975804;28;20194;-86
2022/04/14 03:23:52;;;;;;;13.87;10.13;;;;;;;;;;4964795;28;20222;-86
2022/04/14 03:26:57;;;;;;;12.57;9.63;;;;;;;;;;4974138;28;20206;-85
2022/04/14 03:30:01;;;;;;;13.90;9.83;;;;;;;;;;4969345;28;20673;-85
2022/04/14 03:33:05;;;;;;;13.60;9.23;;;;;;;;;;4984132;28;20704;-85
2022/04/14 03:36:10;;;;;;;13.33;9.40;;;;;;;;;;4994502;28;20654;-85
2022/04/14 03:39:14;;;;;;;10.97;9.63;;;;;;;;;;4983672;28;20193;-85
2022/04/14 03:42:18;;;;;;;14.90;9.80;;;;;;;;;;4986282;28;20793;-85
2022/04/14 03:45:22;;;;;;;12.83;9.47;;;;;;;;;;4978707;28;20190;-85
2022/04/14 03:48:26;;;;;;;10.80;9.70;;;;;;;;;;4971365;28;20190;-85
2022/04/14 03:51:30;;;;;;;12.97;10.23;;;;;;;;;;4978523;28;20626;-85
2022/04/14 03:54:34;;;;;;;12.67;9.57;;;;;;;;;;4974679;28;20703;-85
2022/04/14 03:57:39;;;;;;;12.40;9.17;;;;;;;;;;4997655;28;20198;-85
2022/04/14 04:00:44;;;;;;;12.60;9.67;;;;;;;;;;4978262;28;20190;-85
2022/04/14 04:03:48;;;;;;;15.40;10.73;;;;;;;;;;4959216;28;20233;-85
2022/04/14 04:06:52;;;;;;;12.13;10.03;;;;;;;;;;4986804;28;20197;-85
2022/04/14 04:09:56;;;;;;;11.57;9.63;;;;;;;;;;4966912;28;20716;-85
2022/04/14 04:13:00;;;;;;;14.40;9.80;;;;;;;;;;4969879;28;20214;-86
2022/04/14 04:16:04;;;;;;;9.33;8.20;;;;;;;;;;4969512;28;20187;-87
2022/04/14 04:19:09;;;;;;;13.50;10.10;;;;;;;;;;4974017;28;20190;-85
2022/04/14 04:22:13;;;;;;;10.57;9.00;;;;;;;;;;4998825;28;20193;-85
2022/04/14 04:25:17;;;;;;;13.97;9.43;;;;;;;;;;4966361;28;20198;-86
2022/04/14 04:28:21;;;;;;;14.10;10.50;;;;;;;;;;4966825;28;20510;-85
2022/04/14 04:31:26;;;;;;;22.93;9.90;;;;;;;;;;4971392;28;20201;-85
2022/04/14 04:34:30;;;;;;;17.67;10.23;;;;;;;;;;4974368;28;20692;-85
2022/04/14 04:37:34;;;;;;;13.57;9.43;;;;;;;;;;4996796;28;20189;-85
2022/04/14 04:40:39;;;;;;;14.90;10.07;;;;;;;;;;4984495;28;20182;-84
2022/04/14 04:43:43;;;;;;;24.40;11.83;;;;;;;;;;4984594;28;20227;-84
2022/04/14 04:46:47;;;;;;;20.23;11.73;;;;;;;;;;4985249;28;20187;-85
2022/04/14 04:49:51;;;;;;;17.87;11.10;;;;;;;;;;4985117;28;20221;-85
2022/04/14 04:52:55;;;;;;;14.27;10.40;;;;;;;;;;4984990;28;20592;-86
2022/04/14 04:55:59;;;;;;;16.10;10.30;;;;;;;;;;4998008;28;20185;-85
2022/04/14 04:59:03;;;;;;;13.73;10.10;;;;;;;;;;4986333;28;20537;-85
2022/04/14 05:02:07;;;;;;;13.07;9.67;;;;;;;;;;4976661;28;20593;-85
2022/04/14 05:05:11;;;;;;;16.00;9.70;;;;;;;;;;4965753;28;20178;-85
2022/04/14 05:08:16;;;;;;;17.70;9.83;;;;;;;;;;4988874;28;20550;-85
2022/04/14 05:11:19;;;;;;;18.50;10.43;;;;;;;;;;4984702;28;20194;-85
2022/04/14 05:14:24;;;;;;;16.73;9.47;;;;;;;;;;4974546;28;20226;-87
2022/04/14 05:17:28;;;;;;;18.80;9.90;;;;;;;;;;4996487;28;20193;-86
2022/04/14 05:20:34;;;;;;;20.60;9.27;;;;;;;;;;4966182;28;20194;-85
2022/04/14 05:23:39;;;;;;;22.07;11.50;;;;;;;;;;4973444;28;20230;-85
2022/04/14 05:26:43;;;;;;;17.23;11.03;;;;;;;;;;4955011;28;20562;-84
2022/04/14 05:29:47;;;;;;;16.83;10.80;;;;;;;;;;4960318;28;20226;-85
2022/04/14 05:32:51;;;;;;;24.70;11.87;;;;;;;;;;4985539;28;20178;-84
2022/04/14 05:35:55;;;;;;;19.73;11.60;;;;;;;;;;4973848;28;20202;-84
2022/04/14 05:39:00;;;;;;;18.10;13.67;;;;;;;;;;4984146;28;20688;-84
2022/04/14 05:42:04;;;;;;;21.00;11.63;;;;;;;;;;4984534;28;20696;-84
2022/04/14 05:45:09;;;;;;;27.63;15.73;;;;;;;;;;4973234;28;20213;-84
2022/04/14 05:48:17;;;;;;;25.03;14.70;;;;;;;;;;4984907;28;20194;-84
2022/04/14 05:51:21;;;;;;;19.70;12.60;;;;;;;;;;4966843;28;20190;-84
2022/04/14 05:54:26;;;;;;;23.17;12.53;;;;;;;;;;4971200;28;20707;-84
2022/04/14 05:57:31;;;;;;;19.10;13.13;;;;;;;;;;4984120;28;20209;-84
2022/04/14 06:00:35;;;;;;;16.10;11.87;;;;;;;;;;4978083;28;20202;-84
2022/04/14 06:03:40;;;;;;;18.13;11.73;;;;;;;;;;4983748;28;20588;-85
2022/04/14 06:06:45;;;;;;;12.93;9.50;;;;;;;;;;4983835;28;20189;-84
2022/04/14 06:09:49;;;;;;;14.03;9.50;;;;;;;;;;4967039;28;20219;-84
2022/04/14 06:12:56;;;;;;;12.17;9.43;;;;;;;;;;4972823;28;20194;-84
2022/04/14 06:16:01;;;;;;;13.77;9.57;;;;;;;;;;4970192;28;20182;-84
2022/04/14 06:19:04;;;;;;;16.47;10.10;;;;;;;;;;4983197;28;20193;-84
2022/04/14 06:22:09;;;;;;;12.47;9.53;;;;;;;;;;4983941;28;20185;-84
2022/04/14 06:25:16;;;;;;;10.53;8.23;;;;;;;;;;4973453;28;20197;-84
2022/04/14 06:28:20;;;;;;;12.53;9.23;;;;;;;;;;4983737;28;20547;-84
2022/04/14 06:31:24;;;;;;;11.43;9.43;;;;;;;;;;4983170;28;20704;-84
2022/04/14 06:34:29;;;;;;;12.83;9.80;;;;;;;;;;4983621;28;20233;-84
2022/04/14 06:37:34;;;;;;;15.80;11.10;;;;;;;;;;4995035;28;20190;-85
2022/04/14 06:40:38;;;;;;;15.10;11.40;;;;;;;;;;4974989;28;20193;-84
2022/04/14 06:43:41;;;;;;;12.40;9.57;;;;;;;;;;4975451;28;20225;-84
2022/04/14 06:46:46;;;;;;;14.47;9.70;;;;;;;;;;4976167;28;20190;-84
2022/04/14 06:49:50;;;;;;;11.47;9.80;;;;;;;;;;4961320;28;20224;-84
2022/04/14 06:52:54;;;;;;;12.70;9.47;;;;;;;;;;4994772;28;20197;-85
2022/04/14 06:55:58;;;;;;;16.33;9.40;;;;;;;;;;4983294;28;20198;-84
2022/04/14 06:59:03;;;;;;;11.07;8.93;;;;;;;;;;4983098;28;20179;-84
2022/04/14 07:02:08;;;;;;;11.47;8.63;;;;;;;;;;4982546;28;20673;-85
2022/04/14 07:05:12;;;;;;;13.97;8.53;;;;;;;;;;4983750;23;20253;-85
2022/04/14 07:08:16;;;;;;;9.37;8.43;;;;;;;;;;4978471;28;20584;-85
2022/04/14 07:11:20;;;;;;;12.83;8.93;;;;;;;;;;4953184;28;20214;-85
2022/04/14 07:14:26;;;;;;;12.07;8.57;;;;;;;;;;4971316;28;20758;-85
2022/04/14 07:17:31;;;;;;;11.53;9.03;;;;;;;;;;4989825;28;20182;-85
2022/04/14 07:20:35;;;;;;;12.30;9.27;;;;;;;;;;4955900;28;20194;-84
2022/04/14 07:23:39;;;;;;;14.97;9.40;;;;;;;;;;4955823;28;20221;-84
2022/04/14 07:26:44;;;;;;;13.70;9.90;;;;;;;;;;4956282;28;20218;-86
2022/04/14 07:29:48;;;;;;;14.27;9.70;;;;;;;;;;4966805;28;20227;-86
2022/04/14 07:32:53;;;;;;;9.83;8.47;;;;;;;;;;4978185;28;20199;-86
2022/04/14 07:35:57;;;;;;;11.50;8.93;;;;;;;;;;4966486;28;20677;-85
2022/04/14 07:39:03;;;;;;;11.57;9.43;;;;;;;;;;4966545;28;20193;-85
2022/04/14 07:42:07;;;;;;;10.63;7.73;;;;;;;;;;4955349;28;20190;-85
2022/04/14 07:45:13;;;;;;;10.73;8.50;;;;;;;;;;4969333;28;20227;-85
2022/04/14 07:48:21;;;;;;;13.77;8.57;;;;;;;;;;4952939;29;20188;-87
2022/04/14 07:51:25;;;;;;;10.03;8.37;;;;;;;;;;4954301;28;20216;-85
2022/04/14 07:54:29;;;;;;;12.83;8.37;;;;;;;;;;4980398;28;20225;-86
2022/04/14 07:57:33;;;;;;;11.63;8.70;;;;;;;;;;4966071;28;20198;-86
2022/04/14 08:00:39;;;;;;;13.50;8.50;;;;;;;;;;4956291;28;20205;-85
2022/04/14 08:03:44;;;;;;;13.13;9.67;;;;;;;;;;4956155;28;20233;-86
2022/04/14 08:06:50;;;;;;;15.97;10.27;;;;;;;;;;4969078;28;20191;-86
2022/04/14 08:09:54;;;;;;;11.47;7.60;;;;;;;;;;4969555;28;20221;-87
2022/04/14 08:12:58;;;;;;;10.27;7.57;;;;;;;;;;4978170;28;20210;-85
2022/04/14 08:16:08;;;;;;;12.30;8.13;;;;;;;;;;4956941;28;20183;-85
2022/04/14 08:19:13;;;;;;;11.47;8.33;;;;;;;;;;4978817;28;20198;-87
2022/04/14 08:22:17;;;;;;;13.00;8.10;;;;;;;;;;4955948;28;20190;-86
2022/04/14 08:25:27;;;;;;;16.50;9.13;;;;;;;;;;4965293;28;20241;-87
2022/04/14 08:28:31;;;;;;;14.07;8.77;;;;;;;;;;4968925;28;20524;-85
2022/04/14 08:31:38;;;;;;;15.63;9.17;;;;;;;;;;4957766;29;20218;-86
2022/04/14 08:34:45;;;;;;;12.33;8.47;;;;;;;;;;4965660;28;20589;-86
2022/04/14 08:37:50;;;;;;;10.57;8.33;;;;;;;;;;4973438;28;20200;-85
2022/04/14 08:40:58;;;;;;;11.90;8.13;;;;;;;;;;4946149;28;20207;-85
2022/04/14 08:44:05;;;;;;;9.13;7.20;;;;;;;;;;4954669;28;20227;-86
2022/04/14 08:47:09;;;;;;;14.33;8.30;;;;;;;;;;4976266;28;20195;-86
2022/04/14 08:50:13;;;;;;;15.07;8.43;;;;;;;;;;4954437;28;20554;-86
2022/04/14 08:53:18;;;;;;;8.87;6.17;;;;;;;;;;4978083;28;20562;-86
2022/04/14 08:56:23;;;;;;;16.77;7.00;;;;;;;;;;4976397;28;20191;-86
2022/04/14 08:59:29;;;;;;;7.07;5.63;;;;;;;;;;4964840;28;20203;-86
2022/04/14 09:02:34;;;;;;;10.50;6.03;;;;;;;;;;4953593;28;20189;-86
2022/04/14 09:05:38;;;;;;;6.77;5.63;;;;;;;;;;4965776;28;20184;-86
2022/04/14 09:08:46;;;;;;;9.63;5.90;;;;;;;;;;4946486;29;20667;-86
2022/04/14 09:11:50;;;;;;;10.37;6.13;;;;;;;;;;4976095;28;20683;-86
2022/04/14 09:14:54;;;;;;;10.00;5.80;;;;;;;;;;4965129;28;20226;-86
2022/04/14 09:17:58;;;;;;;8.23;6.30;;;;;;;;;;4976271;28;20561;-86
2022/04/14 09:21:05;;;;;;;9.80;5.95;;;;;;;;;;4965707;28;20524;-86
2022/04/14 09:24:08;;;;;;;8.70;5.45;;;;;;;;;;4965307;28;20217;-86
2022/04/14 09:27:22;;;;;;;10.57;5.80;;;;;;;;;;4965015;28;20523;-85
2022/04/14 09:30:26;;;;;;;8.38;5.93;;;;;;;;;;4968295;28;20217;-85
2022/04/14 09:33:32;;;;;;;9.50;5.57;;;;;;;;;;4956860;28;20224;-86
2022/04/14 09:36:36;;;;;;;11.02;6.22;;;;;;;;;;4957417;28;20190;-86
2022/04/14 09:40:00;;;;;;;8.85;5.45;;;;;;;;;;4957561;29;20188;-85
2022/04/14 09:43:05;;;;;;;9.85;5.25;;;;;;;;;;4946170;28;20631;-86
2022/04/14 09:46:19;;;;;;;7.38;5.18;;;;;;;;;;4956352;28;20181;-86
2022/04/14 09:49:23;;;;;;;8.18;5.18;;;;;;;;;;4967229;28;20537;-86
2022/04/14 09:52:27;;;;;;;7.30;5.20;;;;;;;;;;4963960;28;20188;-86
2022/04/14 09:55:40;;;;;;;9.93;4.60;;;;;;;;;;4953562;28;20198;-86
2022/04/14 09:58:44;;;;;;;7.95;5.38;;;;;;;;;;4964254;28;20199;-86
2022/04/14 10:01:49;;;;;;;7.85;5.30;;;;;;;;;;4963774;28;20539;-86
2022/04/14 10:04:56;;;;;;;11.35;5.10;;;;;;;;;;4986599;28;20573;-86
2022/04/14 10:08:00;;;;;;;9.85;5.45;;;;;;;;;;4965231;28;20710;-85
2022/04/14 10:11:06;;;;;;;8.55;5.47;;;;;;;;;;4944041;29;20557;-86
2022/04/14 10:14:12;;;;;;;7.82;4.97;;;;;;;;;;4960182;28;20230;-86
2022/04/14 10:17:17;;;;;;;11.77;5.53;;;;;;;;;;4974626;28;20183;-86
2022/04/14 10:20:25;;;;;;;8.20;5.50;;;;;;;;;;4952083;28;20670;-86
2022/04/14 10:23:29;;;;;;;7.88;5.22;;;;;;;;;;4973933;28;20229;-87
2022/04/14 10:26:35;;;;;;;10.55;5.80;;;;;;;;;;4963274;28;20197;-86
2022/04/14 10:29:40;;;;;;;8.27;5.50;;;;;;;;;;4962798;28;20190;-86
2022/04/14 10:32:46;;;;;;;8.95;5.43;;;;;;;;;;4951961;28;20198;-86
2022/04/14 10:35:52;;;;;;;6.32;4.90;;;;;;;;;;4951918;28;20193;-86
2022/04/14 10:38:57;;;;;;;9.43;4.78;;;;;;;;;;4963796;28;20177;-86
2022/04/14 10:42:02;;;;;;;8.50;5.90;;;;;;;;;;4974859;28;20526;-85
2022/04/14 10:45:22;;;;;;;6.70;5.28;;;;;;;;;;4963459;28;20217;-87
2022/04/14 10:48:34;;;;;;;8.18;5.15;;;;;;;;;;4951451;28;20207;-86
2022/04/14 10:51:38;;;;;;;8.48;5.28;;;;;;;;;;4952162;28;20208;-86
2022/04/14 10:54:59;;;;;;;16.45;5.88;;;;;;;;;;4954786;28;20234;-86
2022/04/14 10:58:04;;;;;;;7.38;4.78;;;;;;;;;;4943836;29;20542;-86
2022/04/14 11:01:13;;;;;;;10.70;6.40;;;;;;;;;;4944136;28;20179;-86
2022/04/14 11:04:32;;;;;;;9.20;5.30;;;;;;;;;;4954421;29;20233;-86
2022/04/14 11:07:37;;;;;;;9.50;6.38;;;;;;;;;;4954804;29;20187;-85
2022/04/14 11:10:53;;;;;;;9.85;5.10;;;;;;;;;;4944609;29;20203;-86
2022/04/14 11:13:57;;;;;;;7.47;5.47;;;;;;;;;;4943538;28;20221;-85
2022/04/14 11:17:03;;;;;;;8.05;4.97;;;;;;;;;;4954614;29;20201;-86
2022/04/14 11:20:19;;;;;;;13.60;5.80;;;;;;;;;;4954585;29;20201;-85
2022/04/14 11:23:26;;;;;;;7.50;5.07;;;;;;;;;;4954544;28;20230;-86
2022/04/14 11:26:35;;;;;;;8.50;5.78;;;;;;;;;;4943625;29;20176;-86
2022/04/14 11:29:39;;;;;;;10.55;6.47;;;;;;;;;;4954752;29;20517;-86
2022/04/14 11:32:44;;;;;;;13.57;5.85;;;;;;;;;;4943521;29;20215;-86
2022/04/14 11:35:48;;;;;;;10.23;5.50;;;;;;;;;;4954470;29;20666;-86
2022/04/14 11:39:02;;;;;;;8.73;5.75;;;;;;;;;;4954506;29;20190;-85
2022/04/14 11:42:11;;;;;;;11.27;5.90;;;;;;;;;;4954376;28;20194;-86
2022/04/14 11:45:21;;;;;;;9.98;5.43;;;;;;;;;;4954186;29;20227;-86
2022/04/14 11:48:25;;;;;;;11.30;5.82;;;;;;;;;;4954008;29;20202;-86
2022/04/14 11:51:29;;;;;;;10.77;5.85;;;;;;;;;;4956608;28;20701;-86
2022/04/14 11:54:37;;;;;;;7.93;5.43;;;;;;;;;;4951838;28;20220;-86
2022/04/14 11:57:46;;;;;;;13.68;5.53;;;;;;;;;;4945151;28;20201;-86
2022/04/14 12:00:51;;;;;;;9.52;6.05;;;;;;;;;;4933868;29;20194;-88
2022/04/14 12:03:55;;;;;;;9.52;5.93;;;;;;;;;;4946715;28;20221;-88
2022/04/14 12:07:01;;;;;;;9.45;5.30;;;;;;;;;;4935992;29;20223;-89
2022/04/14 12:10:07;;;;;;;13.25;5.57;;;;;;;;;;4957456;29;20182;-88
2022/04/14 12:13:11;;;;;;;10.07;5.65;;;;;;;;;;4946709;28;20191;-88
2022/04/14 12:16:15;;;;;;;9.35;5.40;;;;;;;;;;4947096;29;20552;-88
2022/04/14 12:19:20;;;;;;;8.57;5.65;;;;;;;;;;4958749;29;20538;-89
2022/04/14 12:22:27;;;;;;;9.57;5.38;;;;;;;;;;4946542;29;20665;-88
2022/04/14 12:25:32;;;;;;;8.95;5.55;;;;;;;;;;4946007;29;20199;-89
2022/04/14 12:28:36;;;;;;;11.10;6.00;;;;;;;;;;4957377;29;20189;-89
2022/04/14 12:31:44;;;;;;;7.82;5.40;;;;;;;;;;4945914;29;20690;-89
2022/04/14 12:34:48;;;;;;;12.40;5.63;;;;;;;;;;4935123;29;20225;-88
2022/04/14 12:37:54;;;;;;;7.68;4.97;;;;;;;;;;4935530;29;20188;-88
2022/04/14 12:41:01;;;;;;;10.93;5.22;;;;;;;;;;4946811;29;20186;-88
2022/04/14 12:44:06;;;;;;;9.10;6.15;;;;;;;;;;4934880;29;20231;-89
2022/04/14 12:47:13;;;;;;;10.02;5.72;;;;;;;;;;4957890;28;20187;-86
2022/04/14 12:50:19;;;;;;;11.48;5.57;;;;;;;;;;4965085;28;20182;-87
2022/04/14 12:53:26;;;;;;;8.98;4.43;;;;;;;;;;4956240;28;20231;-87
2022/04/14 12:56:32;;;;;;;9.40;4.65;;;;;;;;;;4959648;28;20196;-87
2022/04/14 12:59:37;;;;;;;9.45;5.38;;;;;;;;;;4964654;28;20198;-87
2022/04/14 13:02:42;;;;;;;15.40;5.10;;;;;;;;;;4952847;28;20208;-86
2022/04/14 13:05:46;;;;;;;6.80;4.70;;;;;;;;;;4972993;28;20214;-87
2022/04/14 13:08:50;;;;;;;10.07;5.38;;;;;;;;;;4965682;28;20517;-86
2022/04/14 13:11:55;;;;;;;9.18;6.10;;;;;;;;;;4975742;28;20208;-87
2022/04/14 13:15:05;;;;;;;12.13;5.68;;;;;;;;;;4963106;28;20231;-88
2022/04/14 13:18:13;;;;;;;12.48;5.93;;;;;;;;;;4935777;29;20180;-88
2022/04/14 13:21:17;;;;;;;15.18;4.93;;;;;;;;;;4954602;28;20196;-89
2022/04/14 13:24:24;;;;;;;13.50;4.88;;;;;;;;;;4988250;28;20222;-89
2022/04/14 13:27:28;;;;;;;10.90;5.25;;;;;;;;;;4954031;28;20180;-89
2022/04/14 13:30:32;;;;;;;9.93;5.15;;;;;;;;;;4964447;28;20655;-89
2022/04/14 13:33:36;;;;;;;8.90;4.75;;;;;;;;;;4964128;28;20213;-89
2022/04/14 13:36:40;;;;;;;8.55;4.80;;;;;;;;;;4955381;28;20645;-86
2022/04/14 13:39:45;;;;;;;7.63;4.85;;;;;;;;;;4958545;28;20182;-86
2022/04/14 13:42:49;;;;;;;5.68;4.28;;;;;;;;;;4957503;28;20209;-87
2022/04/14 13:45:53;;;;;;;8.85;4.82;;;;;;;;;;4964896;28;20531;-87
2022/04/14 13:48:57;;;;;;;7.38;3.88;;;;;;;;;;4964258;28;20529;-87
2022/04/14 13:52:03;;;;;;;47.97;5.95;;;;;;;;;;4964246;28;20194;-87
2022/04/14 13:55:08;;;;;;;6.43;4.10;;;;;;;;;;4964227;28;20220;-87
2022/04/14 13:58:13;;;;;;;5.60;4.07;;;;;;;;;;4958220;28;20210;-86
2022/04/14 14:01:17;;;;;;;17.50;4.95;;;;;;;;;;4958216;28;20204;-85
2022/04/14 14:04:21;;;;;;;7.53;4.65;;;;;;;;;;4965006;28;20241;-87
2022/04/14 14:07:27;;;;;;;6.65;4.15;;;;;;;;;;4954072;28;20194;-85
2022/04/14 14:10:31;;;;;;;8.48;3.95;;;;;;;;;;4964546;28;20193;-89
2022/04/14 14:13:36;;;;;;;6.55;4.20;;;;;;;;;;4964769;28;20221;-86
2022/04/14 14:16:41;;;;;;;8.82;4.28;;;;;;;;;;4964958;28;20179;-89
2022/04/14 14:19:46;;;;;;;7.38;4.15;;;;;;;;;;4963936;28;20180;-89
2022/04/14 14:22:50;;;;;;;5.85;3.78;;;;;;;;;;4985152;28;20207;-89
2022/04/14 14:25:55;;;;;;;5.03;4.00;;;;;;;;;;4963475;28;20633;-89
2022/04/14 14:28:59;;;;;;;6.20;4.10;;;;;;;;;;4963160;28;20202;-89
2022/04/14 14:32:03;;;;;;;7.43;3.90;;;;;;;;;;4963429;28;20191;-89
2022/04/14 14:35:13;;;;;;;6.53;3.65;;;;;;;;;;4953445;28;20220;-89
2022/04/14 14:38:18;;;;;;;7.95;3.83;;;;;;;;;;4975001;28;20253;-89
2022/04/14 14:41:22;;;;;;;4.93;3.50;;;;;;;;;;4964154;28;20626;-89
2022/04/14 14:44:27;;;;;;;5.35;3.60;;;;;;;;;;4952440;28;20564;-88
2022/04/14 14:47:31;;;;;;;6.18;3.72;;;;;;;;;;4963414;28;20636;-88
2022/04/14 14:50:35;;;;;;;5.63;3.53;;;;;;;;;;4963819;28;20535;-87
2022/04/14 14:53:39;;;;;;;8.10;3.95;;;;;;;;;;4963330;28;20211;-88
2022/04/14 14:56:43;;;;;;;10.18;3.42;;;;;;;;;;4952040;28;20186;-89
2022/04/14 14:59:48;;;;;;;5.35;3.47;;;;;;;;;;4985387;28;20655;-89
2022/04/14 15:02:52;;;;;;;6.50;3.58;;;;;;;;;;4951581;28;20231;-89
2022/04/14 15:05:56;;;;;;;9.23;4.03;;;;;;;;;;4952003;28;20178;-89
2022/04/14 15:09:01;;;;;;;11.00;4.03;;;;;;;;;;4962656;28;20205;-89
2022/04/14 15:12:05;;;;;;;8.98;4.28;;;;;;;;;;4962640;28;20211;-89
2022/04/14 15:15:09;;;;;;;5.85;3.80;;;;;;;;;;4951498;28;20215;-89
2022/04/14 15:18:14;;;;;;;8.07;3.38;;;;;;;;;;4952134;28;20209;-89
2022/04/14 15:21:18;;;;;;;5.03;3.20;;;;;;;;;;4951869;28;20199;-89
2022/04/14 15:24:22;;;;;;;7.82;3.75;;;;;;;;;;4963227;28;20216;-89
2022/04/14 15:27:26;;;;;;;9.35;4.18;;;;;;;;;;4952504;28;20182;-89
2022/04/14 15:30:30;;;;;;;4.70;3.92;;;;;;;;;;4954310;28;20177;-88
2022/04/14 15:33:35;;;;;;;17.48;3.83;;;;;;;;;;4954269;28;20212;-89
2022/04/14 15:36:40;;;;;;;4.73;2.97;;;;;;;;;;4958596;28;20265;-89
2022/04/14 15:39:45;;;;;;;6.77;3.00;;;;;;;;;;4967708;28;20182;-89
2022/04/14 15:42:50;;;;;;;6.90;3.10;;;;;;;;;;4955310;28;20208;-89
2022/04/14 15:45:53;;;;;;;5.20;3.30;;;;;;;;;;4955338;28;20182;-89
2022/04/14 15:48:57;;;;;;;10.67;3.13;;;;;;;;;;4955177;28;20204;-89
2022/04/14 15:52:03;;;;;;;10.67;3.33;;;;;;;;;;4952371;28;20209;-88
2022/04/14 15:55:07;;;;;;;6.63;2.60;;;;;;;;;;4965971;28;20225;-87
2022/04/14 15:58:12;;;;;;;5.57;3.00;;;;;;;;;;4977575;28;20634;-87
2022/04/14 16:01:16;;;;;;;7.80;2.90;;;;;;;;;;4955106;28;20191;-87
2022/04/14 16:04:20;;;;;;;4.80;3.00;;;;;;;;;;4965670;28;20228;-87
2022/04/14 16:07:26;;;;;;;4.83;2.90;;;;;;;;;;4954998;28;20209;-87
2022/04/14 16:13:53;;;;;;;11.00;2.60;;;;;;;;;;4965635;28;20220;-87
2022/04/14 16:16:59;;;;;;;3.00;2.67;;;;;;;;;;4954908;28;20201;-87
2022/04/14 16:20:03;;;;;;;5.77;2.80;;;;;;;;;;4966005;28;20626;-87
2022/04/14 16:23:07;;;;;;;7.53;3.07;;;;;;;;;;4954526;28;20226;-87
2022/04/14 16:26:11;;;;;;;44.57;4.70;;;;;;;;;;4976382;28;20198;-87
2022/04/14 16:29:16;;;;;;;5.57;2.80;;;;;;;;;;4954429;28;20668;-87
2022/04/14 16:32:20;;;;;;;6.03;2.90;;;;;;;;;;4954369;28;20539;-91
2022/04/14 16:35:25;;;;;;;4.37;2.70;;;;;;;;;;4954450;28;20223;-91
2022/04/14 16:38:29;;;;;;;3.87;2.40;;;;;;;;;;4976379;28;20199;-85
2022/04/14 16:41:34;;;;;;;9.33;2.80;;;;;;;;;;4963693;28;20195;-90
2022/04/14 16:44:44;;;;;;;7.13;2.57;;;;;;;;;;4955072;28;20559;-91
2022/04/14 16:47:49;;;;;;;7.33;2.50;;;;;;;;;;4943210;28;20645;-91
2022/04/14 16:50:53;;;;;;;4.40;2.30;;;;;;;;;;4976725;28;20179;-91
2022/04/14 16:53:57;;;;;;;6.10;2.60;;;;;;;;;;4953872;28;20571;-91
2022/04/14 16:57:02;;;;;;;3.20;2.33;;;;;;;;;;4954316;28;20187;-91
2022/04/14 17:00:08;;;;;;;4.50;2.53;;;;;;;;;;4954027;28;20179;-91
2022/04/14 17:03:13;;;;;;;8.60;2.70;;;;;;;;;;4975643;28;20214;-91
2022/04/14 17:06:17;;;;;;;5.30;2.30;;;;;;;;;;4955001;28;20207;-91
2022/04/14 17:09:21;;;;;;;4.20;2.37;;;;;;;;;;4965146;28;20178;-91
2022/04/14 17:12:26;;;;;;;4.90;2.43;;;;;;;;;;4965011;28;20634;-91
2022/04/14 17:15:31;;;;;;;6.43;2.40;;;;;;;;;;4953777;28;20183;-91
2022/04/14 17:18:35;;;;;;;4.47;2.07;;;;;;;;;;4965619;28;20187;-90
2022/04/14 17:25:04;;;;;;;8.93;2.40;;;;;;;;;;4975643;28;20206;-87
2022/04/14 17:28:08;;;;;;;5.30;2.20;;;;;;;;;;4964390;28;20187;-87
2022/04/14 17:31:12;;;;;;;8.77;2.47;;;;;;;;;;4953169;28;20182;-87
2022/04/14 17:34:17;;;;;;;4.20;2.50;;;;;;;;;;4964109;28;20218;-87
2022/04/14 17:37:21;;;;;;;5.10;2.20;;;;;;;;;;4953233;28;20179;-85
2022/04/14 17:40:25;;;;;;;4.87;2.60;;;;;;;;;;4957985;28;20186;-85
2022/04/14 17:43:29;;;;;;;7.10;2.70;;;;;;;;;;4986008;28;20575;-85
2022/04/14 17:46:35;;;;;;;5.33;2.67;;;;;;;;;;4953734;28;20191;-85
2022/04/14 17:49:39;;;;;;;4.77;2.10;;;;;;;;;;4964549;28;20198;-85
2022/04/14 17:52:44;;;;;;;4.93;2.47;;;;;;;;;;4961606;28;20550;-85
2022/04/14 17:55:48;;;;;;;5.97;2.47;;;;;;;;;;4953199;28;20630;-86
2022/04/14 17:58:52;;;;;;;3.97;2.57;;;;;;;;;;4963315;28;20647;-85
2022/04/14 18:01:56;;;;;;;8.50;3.00;;;;;;;;;;4985821;28;20191;-87
2022/04/14 18:05:00;;;;;;;6.53;2.90;;;;;;;;;;4955113;28;20226;-86
2022/04/14 18:08:05;;;;;;;8.37;3.10;;;;;;;;;;4933865;29;20180;-86
2022/04/14 18:11:09;;;;;;;10.83;3.30;;;;;;;;;;4947101;28;20191;-87
2022/04/14 18:14:13;;;;;;;7.20;3.00;;;;;;;;;;4963584;28;20586;-86
2022/04/14 18:17:18;;;;;;;8.03;3.13;;;;;;;;;;4952344;28;20625;-86
2022/04/14 18:20:23;;;;;;;3.97;2.70;;;;;;;;;;4952301;28;20191;-86
2022/04/14 18:23:27;;;;;;;5.70;2.70;;;;;;;;;;4951834;28;20238;-86